createdAt,value
2023-02-03T00:02:00.814Z,5.00
2023-02-03T00:04:27.812Z,5.27
2023-02-03T00:06:54.792Z,4.50
2023-02-03T00:09:21.725Z,3.67
2023-02-03T00:11:48.573Z,3.60
2023-02-03T00:14:15.583Z,4.40
2023-02-03T00:16:42.608Z,4.43
2023-02-03T00:19:09.845Z,4.23
2023-02-03T00:21:36.818Z,3.93
2023-02-03T00:24:03.840Z,4.53
2023-02-03T00:26:30.951Z,4.27
2023-02-03T00:29:00.824Z,3.57
2023-02-03T00:31:27.945Z,4.20
2023-02-03T00:33:57.386Z,4.33
2023-02-03T00:36:26.802Z,4.70
2023-02-03T00:38:54.736Z,4.10
2023-02-03T00:41:22.210Z,4.03
2023-02-03T00:43:50.086Z,4.60
2023-02-03T00:46:17.151Z,4.30
2023-02-03T00:48:44.079Z,4.03
2023-02-03T00:51:11.507Z,4.20
2023-02-03T00:53:38.515Z,4.90
2023-02-03T00:56:12.601Z,4.60
2023-02-03T00:58:40.889Z,5.17
2023-02-03T01:01:09.108Z,5.47
2023-02-03T01:03:36.326Z,5.20
2023-02-03T01:06:20.325Z,3.80
2023-02-03T01:08:48.979Z,4.97
2023-02-03T01:11:27.422Z,4.77
2023-02-03T01:13:56.972Z,5.20
2023-02-03T01:16:27.079Z,4.53
2023-02-03T01:18:55.844Z,4.60
2023-02-03T01:21:25.988Z,4.53
2023-02-03T01:23:55.428Z,4.50
2023-02-03T01:26:24.177Z,5.13
2023-02-03T01:28:57.390Z,5.20
2023-02-03T01:31:31.568Z,6.17
2023-02-03T01:33:58.964Z,6.17
2023-02-03T01:36:27.340Z,6.23
2023-02-03T01:38:54.883Z,6.70
2023-02-03T01:41:25.960Z,6.70
2023-02-03T01:43:56.649Z,6.50
2023-02-03T01:47:01.795Z,6.33
2023-02-03T01:49:35.847Z,6.80
2023-02-03T01:52:04.888Z,7.00
2023-02-03T01:54:38.571Z,6.30
2023-02-03T01:57:15.721Z,7.00
2023-02-03T01:59:43.663Z,6.37
2023-02-03T02:02:12.179Z,5.70
2023-02-03T02:05:30.949Z,6.60
2023-02-03T02:08:00.417Z,6.13
2023-02-03T02:10:30.633Z,5.37
2023-02-03T02:12:59.103Z,6.07
2023-02-03T02:15:45.849Z,5.43
2023-02-03T02:18:25.455Z,4.53
2023-02-03T02:21:07.211Z,3.80
2023-02-03T02:24:19.915Z,3.90
2023-02-03T02:27:16.956Z,4.10
2023-02-03T02:29:58.926Z,3.90
2023-02-03T02:32:49.045Z,4.20
2023-02-03T02:35:48.363Z,4.25
2023-02-03T02:38:36.566Z,4.70
2023-02-03T02:41:31.451Z,4.40
2023-02-03T02:44:09.306Z,4.90
2023-02-03T02:46:47.606Z,3.67
2023-02-03T02:49:31.128Z,4.00
2023-02-03T02:52:04.283Z,4.50
2023-02-03T02:54:34.378Z,4.50
2023-02-03T02:57:05.498Z,4.17
2023-02-03T02:59:33.048Z,3.60
2023-02-03T03:02:00.012Z,3.43
2023-02-03T03:04:32.517Z,3.40
2023-02-03T03:07:03.223Z,2.60
2023-02-03T03:09:49.267Z,2.50
2023-02-03T03:12:24.899Z,3.13
2023-02-03T03:15:00.661Z,2.80
2023-02-03T03:17:36.487Z,3.27
2023-02-03T03:20:11.003Z,2.07
2023-02-03T03:22:46.726Z,3.10
2023-02-03T03:25:19.674Z,3.37
2023-02-03T03:27:57.073Z,2.50
2023-02-03T03:30:29.923Z,2.10
2023-02-03T03:32:58.631Z,2.57
2023-02-03T03:35:35.371Z,1.97
2023-02-03T03:38:14.932Z,1.80
2023-02-03T03:41:20.085Z,2.47
2023-02-03T03:43:49.761Z,2.70
2023-02-03T03:46:30.684Z,2.07
2023-02-03T03:49:04.711Z,2.37
2023-02-03T03:51:40.486Z,2.10
2023-02-03T03:54:12.057Z,2.77
2023-02-03T03:56:55.799Z,1.90
2023-02-03T03:59:26.053Z,2.50
2023-02-03T04:01:53.741Z,1.67
2023-02-03T04:04:21.617Z,2.57
2023-02-03T04:06:48.572Z,2.63
2023-02-03T04:09:15.717Z,2.00
2023-02-03T04:12:01.213Z,2.07
2023-02-03T04:14:34.795Z,2.60
2023-02-03T04:17:02.274Z,3.50
2023-02-03T04:19:29.329Z,2.30
2023-02-03T04:21:56.495Z,3.10
2023-02-03T04:24:23.654Z,2.30
2023-02-03T04:26:50.679Z,2.50
2023-02-03T04:29:17.635Z,2.97
2023-02-03T04:31:44.707Z,2.33
2023-02-03T04:34:11.809Z,2.33
2023-02-03T04:36:38.833Z,3.23
2023-02-03T04:39:05.824Z,2.43
2023-02-03T04:41:32.917Z,2.40
2023-02-03T04:44:00.176Z,2.70
2023-02-03T04:46:27.036Z,2.27
2023-02-03T04:48:54.031Z,2.20
2023-02-03T04:51:20.938Z,1.90
2023-02-03T04:53:47.917Z,2.60
2023-02-03T04:56:16.169Z,2.53
2023-02-03T04:58:43.135Z,2.80
2023-02-03T05:01:11.039Z,2.37
2023-02-03T05:03:38.190Z,2.47
2023-02-03T05:06:05.773Z,2.90
2023-02-03T05:08:33.124Z,2.30
2023-02-03T05:11:02.001Z,2.23
2023-02-03T05:13:29.603Z,2.73
2023-02-03T05:15:56.571Z,2.87
2023-02-03T05:18:23.434Z,2.93
2023-02-03T05:20:50.490Z,2.80
2023-02-03T05:23:17.355Z,2.37
2023-02-03T05:25:45.355Z,2.70
2023-02-03T05:28:12.481Z,2.37
2023-02-03T05:30:39.895Z,2.93
2023-02-03T05:33:07.044Z,2.70
2023-02-03T05:35:34.116Z,2.53
2023-02-03T05:38:01.194Z,3.27
2023-02-03T05:40:47.062Z,3.60
2023-02-03T05:43:14.456Z,3.50
2023-02-03T05:45:41.416Z,3.87
2023-02-03T05:48:08.820Z,3.17
2023-02-03T05:50:38.667Z,3.20
2023-02-03T05:53:07.982Z,2.87
2023-02-03T05:55:36.575Z,2.80
2023-02-03T05:58:05.014Z,1.23
2023-02-03T06:00:31.941Z,2.80
2023-02-03T06:03:02.871Z,2.33
2023-02-03T06:05:32.496Z,1.93
2023-02-03T06:07:59.698Z,2.87
2023-02-03T06:10:28.249Z,2.33
2023-02-03T06:12:55.392Z,2.67
2023-02-03T06:15:22.339Z,2.07
2023-02-03T06:17:50.403Z,2.70
2023-02-03T06:20:20.337Z,2.63
2023-02-03T06:22:47.301Z,2.10
2023-02-03T06:25:14.553Z,2.50
2023-02-03T06:27:42.534Z,2.30
2023-02-03T06:30:11.631Z,2.30
2023-02-03T06:32:38.933Z,2.47
2023-02-03T06:35:06.386Z,1.47
2023-02-03T06:37:35.795Z,2.23
2023-02-03T06:40:04.495Z,1.90
2023-02-03T06:42:31.869Z,2.17
2023-02-03T06:44:58.902Z,1.60
2023-02-03T06:47:25.845Z,1.60
2023-02-03T06:49:52.875Z,1.73
2023-02-03T06:52:20.120Z,1.90
2023-02-03T06:54:47.084Z,2.53
2023-02-03T06:57:14.096Z,1.70
2023-02-03T06:59:41.035Z,2.20
2023-02-03T07:02:08.011Z,1.60
2023-02-03T07:04:34.871Z,1.77
2023-02-03T07:07:01.774Z,2.03
2023-02-03T07:09:28.700Z,1.93
2023-02-03T07:11:55.684Z,1.50
2023-02-03T07:14:22.563Z,1.83
2023-02-03T07:16:49.420Z,1.70
2023-02-03T07:19:16.347Z,1.50
2023-02-03T07:21:43.255Z,1.80
2023-02-03T07:24:10.335Z,1.47
2023-02-03T07:26:37.254Z,1.67
2023-02-03T07:29:04.418Z,1.63
2023-02-03T07:31:31.950Z,1.77
2023-02-03T07:33:59.319Z,1.67
2023-02-03T07:36:27.574Z,1.67
2023-02-03T07:38:54.873Z,1.50
2023-02-03T07:41:21.869Z,1.30
2023-02-03T07:43:48.914Z,1.50
2023-02-03T07:46:16.011Z,1.83
2023-02-03T07:48:42.981Z,1.57
2023-02-03T07:51:10.100Z,1.77
2023-02-03T07:53:37.157Z,1.40
2023-02-03T07:56:05.716Z,1.30
2023-02-03T07:58:33.233Z,1.70
2023-02-03T08:01:00.689Z,1.70
2023-02-03T08:03:27.629Z,1.43
2023-02-03T08:05:54.602Z,1.40
2023-02-03T08:08:21.516Z,1.20
2023-02-03T08:10:48.445Z,1.50
2023-02-03T08:13:15.545Z,1.63
2023-02-03T08:15:42.562Z,1.87
2023-02-03T08:18:10.020Z,1.20
2023-02-03T08:20:36.992Z,1.77
2023-02-03T08:23:03.988Z,1.60
2023-02-03T08:25:31.230Z,1.30
2023-02-03T08:27:58.418Z,1.57
2023-02-03T08:30:26.225Z,1.30
2023-02-03T08:32:53.221Z,1.33
2023-02-03T08:35:20.293Z,1.70
2023-02-03T08:37:47.493Z,1.20
2023-02-03T08:40:14.457Z,1.47
2023-02-03T08:42:44.331Z,1.73
2023-02-03T08:45:11.956Z,1.40
2023-02-03T08:47:39.602Z,1.33
2023-02-03T08:50:09.132Z,1.53
2023-02-03T08:52:38.049Z,1.83
2023-02-03T08:55:06.122Z,1.80
2023-02-03T08:57:36.223Z,1.50
2023-02-03T09:00:05.349Z,1.57
2023-02-03T09:02:32.331Z,1.10
2023-02-03T09:04:59.474Z,1.40
2023-02-03T09:07:27.374Z,1.30
2023-02-03T09:09:54.355Z,1.57
2023-02-03T09:12:21.330Z,1.40
2023-02-03T09:14:48.295Z,1.37
2023-02-03T09:17:15.632Z,1.57
2023-02-03T09:19:42.677Z,1.57
2023-02-03T09:22:09.843Z,1.40
2023-02-03T09:24:37.105Z,1.00
2023-02-03T09:27:04.157Z,1.20
2023-02-03T09:29:31.157Z,1.53
2023-02-03T09:31:58.306Z,1.20
2023-02-03T09:34:25.303Z,1.63
2023-02-03T09:36:52.404Z,1.40
2023-02-03T09:39:19.521Z,1.93
2023-02-03T09:42:04.619Z,1.23
2023-02-03T09:44:46.423Z,1.43
2023-02-03T09:47:19.220Z,1.47
2023-02-03T09:49:55.561Z,1.40
2023-02-03T09:52:31.554Z,1.50
2023-02-03T09:55:10.909Z,1.43
2023-02-03T09:57:57.180Z,1.33
2023-02-03T10:00:31.988Z,1.27
2023-02-03T10:03:38.497Z,1.40
2023-02-03T10:06:14.577Z,1.23
2023-02-03T10:09:22.147Z,1.40
2023-02-03T10:12:28.947Z,1.43
2023-02-03T10:15:27.239Z,1.23
2023-02-03T10:18:01.802Z,1.30
2023-02-03T10:20:45.949Z,1.47
2023-02-03T10:23:20.283Z,1.30
2023-02-03T10:25:57.735Z,1.10
2023-02-03T10:28:31.647Z,1.30
2023-02-03T10:31:03.137Z,1.30
2023-02-03T10:33:32.719Z,1.00
2023-02-03T10:36:21.974Z,1.10
2023-02-03T10:38:48.821Z,1.20
2023-02-03T10:41:18.751Z,1.53
2023-02-03T10:43:47.631Z,1.83
2023-02-03T10:46:16.157Z,1.20
2023-02-03T10:48:43.136Z,1.37
2023-02-03T10:51:21.388Z,1.27
2023-02-03T10:53:52.994Z,1.57
2023-02-03T10:56:30.420Z,1.30
2023-02-03T10:59:00.231Z,1.57
2023-02-03T11:01:45.101Z,1.33
2023-02-03T11:04:31.286Z,2.00
2023-02-03T11:07:02.153Z,1.20
2023-02-03T11:09:37.172Z,1.10
2023-02-03T11:12:15.359Z,0.90
2023-02-03T11:15:06.168Z,1.07
2023-02-03T11:17:37.057Z,1.50
2023-02-03T11:20:17.221Z,1.50
2023-02-03T11:22:45.244Z,1.47
2023-02-03T11:25:27.727Z,1.37
2023-02-03T11:27:56.604Z,3.03
2023-02-03T11:30:28.245Z,1.40
2023-02-03T11:32:55.664Z,1.77
2023-02-03T11:35:26.042Z,1.37
2023-02-03T11:38:00.901Z,1.10
2023-02-03T11:40:38.818Z,0.90
2023-02-03T11:43:17.976Z,1.40
2023-02-03T11:45:52.041Z,1.50
2023-02-03T11:48:35.452Z,1.57
2023-02-03T11:51:34.329Z,1.30
2023-02-03T11:54:45.261Z,1.23
2023-02-03T11:57:30.749Z,1.70
2023-02-03T12:00:13.485Z,1.63
2023-02-03T12:02:43.461Z,1.83
2023-02-03T12:05:46.228Z,2.03
2023-02-03T12:08:37.747Z,11.50
2023-02-03T12:11:53.918Z,2.30
2023-02-03T12:15:03.120Z,1.20
2023-02-03T12:18:11.217Z,2.27
2023-02-03T12:20:48.488Z,1.70
2023-02-03T12:23:59.923Z,1.80
2023-02-03T12:27:09.347Z,1.23
2023-02-03T12:29:49.644Z,2.20
2023-02-03T12:32:34.355Z,1.60
2023-02-03T12:35:48.110Z,1.37
2023-02-03T12:39:11.582Z,1.00
2023-02-03T12:41:44.841Z,1.20
2023-02-03T12:44:23.223Z,0.90
2023-02-03T12:47:02.624Z,1.60
2023-02-03T12:49:55.443Z,1.50
2023-02-03T12:52:29.402Z,1.10
2023-02-03T12:55:38.015Z,1.27
2023-02-03T12:58:20.315Z,1.17
2023-02-03T13:01:11.845Z,1.27
2023-02-03T13:03:53.525Z,1.10
2023-02-03T13:06:23.057Z,1.17
2023-02-03T13:08:58.806Z,1.30
2023-02-03T13:11:46.738Z,1.90
2023-02-03T13:14:32.712Z,0.90
2023-02-03T13:17:13.193Z,1.40
2023-02-03T13:19:49.557Z,1.10
2023-02-03T13:22:17.634Z,1.47
2023-02-03T13:24:57.090Z,1.70
2023-02-03T13:28:03.230Z,1.40
2023-02-03T13:30:39.545Z,1.17
2023-02-03T13:33:43.817Z,1.30
2023-02-03T13:36:36.888Z,1.60
2023-02-03T13:39:50.189Z,1.17
2023-02-03T13:42:17.059Z,1.70
2023-02-03T13:44:49.978Z,1.10
2023-02-03T13:47:23.461Z,1.10
2023-02-03T13:50:00.034Z,0.90
2023-02-03T13:52:39.160Z,1.20
2023-02-03T13:55:07.958Z,1.00
2023-02-03T13:57:39.295Z,0.97
2023-02-03T14:00:44.653Z,0.90
2023-02-03T14:03:26.611Z,0.90
2023-02-03T14:05:56.307Z,1.07
2023-02-03T14:08:26.295Z,1.00
2023-02-03T14:11:33.920Z,0.97
2023-02-03T14:14:09.792Z,1.10
2023-02-03T14:16:43.812Z,1.00
2023-02-03T14:19:30.727Z,0.90
2023-02-03T14:22:06.021Z,0.90
2023-02-03T14:24:44.558Z,0.87
2023-02-03T14:27:26.879Z,1.00
2023-02-03T14:30:19.810Z,0.90
2023-02-03T14:32:56.749Z,1.10
2023-02-03T14:35:34.003Z,1.13
2023-02-03T14:38:14.991Z,0.83
2023-02-03T14:40:56.526Z,1.10
2023-02-03T14:43:38.342Z,1.17
2023-02-03T14:46:27.127Z,1.20
2023-02-03T14:49:42.787Z,0.90
2023-02-03T14:52:27.185Z,0.90
2023-02-03T14:55:30.366Z,1.20
2023-02-03T14:58:05.999Z,0.93
2023-02-03T15:00:35.867Z,0.80
2023-02-03T15:03:11.695Z,0.87
2023-02-03T15:05:49.164Z,1.10
2023-02-03T15:08:42.144Z,0.93
2023-02-03T15:11:29.992Z,1.13
2023-02-03T15:14:24.548Z,0.90
2023-02-03T15:17:13.776Z,1.20
2023-02-03T15:19:42.808Z,0.97
2023-02-03T15:22:23.413Z,0.80
2023-02-03T15:24:58.426Z,1.20
2023-02-03T15:27:28.974Z,1.00
2023-02-03T15:29:59.484Z,0.73
2023-02-03T15:32:29.264Z,1.20
2023-02-03T15:34:59.143Z,1.10
2023-02-03T15:37:58.764Z,0.70
2023-02-03T15:40:46.080Z,1.10
2023-02-03T15:43:22.332Z,0.87
2023-02-03T15:45:58.111Z,0.90
2023-02-03T15:48:39.058Z,1.00
2023-02-03T15:51:22.726Z,1.03
2023-02-03T15:54:02.688Z,0.90
2023-02-03T15:56:44.983Z,1.03
2023-02-03T15:59:31.406Z,1.10
2023-02-03T16:02:01.585Z,1.20
2023-02-03T16:04:30.919Z,1.80
2023-02-03T16:07:00.363Z,1.17
2023-02-03T16:09:35.580Z,1.00
2023-02-03T16:12:30.347Z,1.50
2023-02-03T16:15:00.912Z,1.20
2023-02-03T16:17:34.933Z,1.33
2023-02-03T16:20:11.146Z,2.03
2023-02-03T16:22:45.593Z,2.07
2023-02-03T16:25:27.572Z,1.67
2023-02-03T16:28:31.732Z,1.00
2023-02-03T16:31:22.069Z,1.10
2023-02-03T16:34:09.463Z,1.90
2023-02-03T16:37:02.845Z,1.40
2023-02-03T16:39:48.601Z,1.10
2023-02-03T16:42:39.546Z,0.93
2023-02-03T16:45:37.252Z,1.17
2023-02-03T16:48:23.351Z,0.97
2023-02-03T16:50:58.880Z,0.87
2023-02-03T16:53:31.770Z,1.47
2023-02-03T16:56:04.604Z,1.10
2023-02-03T16:58:32.412Z,1.20
2023-02-03T17:01:02.895Z,0.90
2023-02-03T17:03:33.309Z,1.47
2023-02-03T17:06:09.450Z,1.37
2023-02-03T17:08:38.287Z,1.40
2023-02-03T17:11:13.621Z,1.40
2023-02-03T17:13:40.666Z,1.20
2023-02-03T17:16:12.555Z,1.00
2023-02-03T17:18:40.308Z,1.50
2023-02-03T17:21:13.912Z,0.90
2023-02-03T17:23:41.429Z,1.17
2023-02-03T17:26:08.976Z,1.10
2023-02-03T17:28:37.090Z,1.00
2023-02-03T17:31:07.052Z,1.20
2023-02-03T17:33:35.234Z,1.10
2023-02-03T17:36:17.910Z,1.33
2023-02-03T17:55:18.392Z,1.27
2023-02-03T17:57:45.395Z,1.23
2023-02-03T18:00:13.125Z,1.30
2023-02-03T18:02:40.466Z,1.40
2023-02-03T18:05:08.041Z,1.33
2023-02-03T18:07:35.330Z,1.30
2023-02-03T18:10:02.396Z,1.27
2023-02-03T18:12:30.297Z,1.57
2023-02-03T18:14:57.870Z,1.37
2023-02-03T18:17:24.921Z,1.20
2023-02-03T18:19:55.712Z,1.50
2023-02-03T18:22:23.404Z,1.50
2023-02-03T18:24:53.048Z,1.10
2023-02-03T18:27:20.048Z,1.37
2023-02-03T18:29:48.449Z,1.20
2023-02-03T18:32:16.796Z,1.47
2023-02-03T18:34:43.856Z,1.90
2023-02-03T18:37:12.150Z,1.43
2023-02-03T18:39:39.069Z,1.30
2023-02-03T18:42:07.386Z,1.80
2023-02-03T18:44:34.655Z,1.40
2023-02-03T18:47:07.347Z,1.20
2023-02-03T18:49:36.969Z,1.47
2023-02-03T18:52:05.441Z,1.97
2023-02-03T18:54:32.721Z,1.60
2023-02-03T18:57:00.483Z,1.47
2023-02-03T18:59:27.515Z,1.60
2023-02-03T19:01:59.409Z,1.50
2023-02-03T19:04:26.342Z,1.30
2023-02-03T19:06:53.569Z,1.60
2023-02-03T19:09:22.398Z,1.03
2023-02-03T19:11:49.640Z,1.40
2023-02-03T19:14:17.653Z,1.43
2023-02-03T19:16:44.670Z,1.33
2023-02-03T19:19:14.295Z,1.03
2023-02-03T19:21:42.004Z,1.77
2023-02-03T19:24:09.393Z,1.33
2023-02-03T19:26:36.367Z,0.93
2023-02-03T19:29:05.516Z,1.50
2023-02-03T19:31:32.616Z,1.30
2023-02-03T19:34:00.238Z,1.20
2023-02-03T19:36:31.468Z,1.10
2023-02-03T19:38:58.635Z,1.50
2023-02-03T19:41:26.643Z,0.90
2023-02-03T19:43:54.673Z,1.40
2023-02-03T19:46:22.462Z,1.40
2023-02-03T19:48:50.492Z,1.00
2023-02-03T19:51:21.667Z,1.10
2023-02-03T19:53:48.805Z,1.20
2023-02-03T19:56:15.728Z,1.47
2023-02-03T19:58:45.552Z,1.50
2023-02-03T20:01:12.452Z,1.27
2023-02-03T20:03:39.986Z,1.40
2023-02-03T20:06:07.608Z,1.30
2023-02-03T20:08:34.556Z,1.20
2023-02-03T20:11:03.030Z,1.43
2023-02-03T20:13:30.197Z,1.10
2023-02-03T20:15:57.168Z,1.57
2023-02-03T20:18:27.808Z,1.00
2023-02-03T20:20:56.799Z,1.77
2023-02-03T20:23:24.356Z,1.07
2023-02-03T20:25:53.995Z,1.47
2023-02-03T20:28:24.493Z,1.27
2023-02-03T20:30:57.889Z,1.43
2023-02-03T20:33:29.069Z,1.30
2023-02-03T20:35:57.938Z,3.00
2023-02-03T20:38:26.021Z,1.33
2023-02-03T20:41:01.454Z,1.13
2023-02-03T20:43:33.450Z,1.13
2023-02-03T20:46:02.909Z,1.10
2023-02-03T20:48:31.587Z,1.40
2023-02-03T20:50:58.739Z,1.50
2023-02-03T20:53:27.042Z,1.33
2023-02-03T20:56:00.411Z,1.20
2023-02-03T20:58:35.507Z,1.50
2023-02-03T21:01:04.008Z,1.50
2023-02-03T21:03:49.800Z,1.50
2023-02-03T21:06:20.430Z,1.57
2023-02-03T21:08:48.600Z,1.70
2023-02-03T21:11:19.727Z,1.77
2023-02-03T21:13:50.201Z,1.43
2023-02-03T21:16:27.942Z,1.40
2023-02-03T21:19:00.586Z,1.47
2023-02-03T21:21:39.749Z,1.57
2023-02-03T21:24:32.929Z,1.93
2023-02-03T21:27:01.683Z,1.30
2023-02-03T21:29:37.368Z,1.23
2023-02-03T21:32:10.096Z,1.60
2023-02-03T21:34:37.828Z,1.50
2023-02-03T21:37:20.967Z,1.10
2023-02-03T21:39:49.027Z,0.93
2023-02-03T21:42:44.292Z,1.20
2023-02-03T21:45:17.612Z,0.90
2023-02-03T21:47:48.357Z,1.27
2023-02-03T21:50:37.466Z,1.03
2023-02-03T21:53:10.526Z,1.00
2023-02-03T21:55:40.699Z,1.50
2023-02-03T21:58:30.822Z,1.10
2023-02-03T22:01:00.754Z,1.00
2023-02-03T22:03:31.481Z,1.03
2023-02-03T22:06:16.670Z,1.30
2023-02-03T22:08:49.787Z,1.60
2023-02-03T22:11:19.213Z,1.13
2023-02-03T22:13:48.075Z,3.43
2023-02-03T22:16:17.414Z,1.13
2023-02-03T22:18:46.910Z,1.47
2023-02-03T22:21:14.817Z,1.50
2023-02-03T22:23:43.375Z,1.40
2023-02-03T22:26:12.664Z,1.37
2023-02-03T22:28:41.307Z,1.20
2023-02-03T22:31:11.019Z,1.10
2023-02-03T22:33:39.336Z,1.53
2023-02-03T22:36:08.205Z,1.30
2023-02-03T22:38:35.840Z,1.33
2023-02-03T22:41:04.228Z,1.70
2023-02-03T22:43:31.627Z,1.60
2023-02-03T22:46:01.549Z,1.27
2023-02-03T22:48:29.867Z,1.43
2023-02-03T22:50:58.653Z,1.20
2023-02-03T22:53:26.499Z,1.60
2023-02-03T22:55:53.381Z,1.50
2023-02-03T22:58:20.447Z,1.53
2023-02-03T23:00:47.455Z,1.20
2023-02-03T23:03:14.449Z,3.13
2023-02-03T23:05:41.462Z,1.50
2023-02-03T23:08:08.426Z,1.50
2023-02-03T23:10:35.414Z,1.90
2023-02-03T23:13:02.501Z,1.60
2023-02-03T23:15:30.021Z,2.27
2023-02-03T23:17:57.399Z,2.13
2023-02-03T23:20:24.345Z,1.90
2023-02-03T23:22:51.519Z,1.80
2023-02-03T23:25:18.696Z,1.80
2023-02-03T23:27:45.921Z,2.10
2023-02-03T23:30:14.308Z,2.00
2023-02-03T23:32:41.404Z,2.40
2023-02-03T23:35:27.800Z,2.67
2023-02-03T23:37:54.798Z,2.10
2023-02-03T23:40:22.556Z,2.20
2023-02-03T23:42:49.952Z,2.07
2023-02-03T23:45:17.487Z,2.20
2023-02-03T23:47:46.427Z,1.97
2023-02-03T23:50:19.055Z,2.97
2023-02-03T23:52:47.929Z,2.53
2023-02-03T23:55:18.890Z,1.70
2023-02-03T23:57:47.326Z,2.27
